Time;durP1;ratioP1;P1;durP2;ratioP2;P2;SDS_P1;SDS_P2;PMS_P1;PMS_P2;Temp;Humidity;BMP_temperature;BMP_pressure;BME280_temperature;BME280_humidity;BME280_pressure;Samples;Min_cycle;Max_cycle;Signal;HPM_P1;HPM_P2
2023/11/14 00:02:15;;;;;;;3.40;3.10;;;;;;;4.77;100.00;98422.77;109568;1250;66423;-70
2023/11/14 00:04:41;;;;;;;3.60;3.00;;;;;;;4.73;100.00;98420.71;109649;1250;72621;-68
2023/11/14 00:07:08;;;;;;;4.50;3.40;;;;;;;4.71;100.00;98418.27;109640;1251;58990;-68
2023/11/14 00:09:35;;;;;;;3.60;3.20;;;;;;;4.69;100.00;98408.30;109644;1251;58952;-69
2023/11/14 00:12:01;;;;;;;3.70;3.30;;;;;;;4.67;100.00;98397.44;109585;1250;73470;-69
2023/11/14 00:14:28;;;;;;;6.20;4.00;;;;;;;4.63;100.00;98390.00;109638;1251;66370;-69
2023/11/14 00:16:55;;;;;;;7.80;4.20;;;;;;;4.55;100.00;98388.27;109648;1251;72556;-69
2023/11/14 00:19:21;;;;;;;5.40;4.00;;;;;;;4.46;100.00;98385.64;109612;1251;60956;-69
2023/11/14 00:21:48;;;;;;;5.30;3.80;;;;;;;4.38;100.00;98378.95;109645;1250;61084;-68
2023/11/14 00:24:14;;;;;;;5.70;3.30;;;;;;;4.30;100.00;98378.52;109633;1250;59402;-69
2023/11/14 00:26:41;;;;;;;5.80;3.90;;;;;;;4.25;100.00;98376.38;109682;1250;66772;-69
2023/11/14 00:29:08;;;;;;;5.70;4.10;;;;;;;4.19;100.00;98371.05;109511;1251;70139;-70
2023/11/14 00:31:34;;;;;;;5.50;4.70;;;;;;;4.13;100.00;98365.66;109633;1251;58905;-68
2023/11/14 00:34:01;;;;;;;5.30;4.00;;;;;;;4.09;100.00;98358.95;109625;1251;60246;-70
2023/11/14 00:36:28;;;;;;;6.70;3.70;;;;;;;4.04;100.00;98353.46;109653;1251;74637;-67
2023/11/14 00:38:59;;;;;;;3.40;3.10;;;;;;;3.99;100.00;98346.83;109629;1250;66021;-67
2023/11/14 00:41:27;;;;;;;6.40;3.40;;;;;;;3.94;100.00;98346.86;109492;1251;72492;-66
2023/11/14 00:43:53;;;;;;;4.70;3.30;;;;;;;3.89;100.00;98337.66;109627;1251;60939;-67
2023/11/14 00:46:20;;;;;;;5.60;3.00;;;;;;;3.87;100.00;98331.75;109654;1250;59420;-68
2023/11/14 00:48:47;;;;;;;3.90;3.10;;;;;;;3.87;100.00;98330.86;109577;1251;74563;-69
2023/11/14 00:51:13;;;;;;;4.30;3.10;;;;;;;3.87;100.00;98331.09;109718;1251;67695;-69
2023/11/14 00:53:40;;;;;;;3.00;2.60;;;;;;;3.88;100.00;98341.36;109540;1251;72527;-70
2023/11/14 00:56:07;;;;;;;2.60;2.40;;;;;;;3.89;100.00;98347.30;109625;1251;58900;-68
2023/11/14 00:58:34;;;;;;;2.90;2.70;;;;;;;3.92;100.00;98349.34;109678;1250;60094;-68
2023/11/14 01:01:01;;;;;;;3.00;2.70;;;;;;;3.94;100.00;98352.26;109616;1250;74484;-70
2023/11/14 01:03:28;;;;;;;2.70;2.10;;;;;;;3.97;100.00;98350.31;109693;1251;67956;-69
2023/11/14 01:05:55;;;;;;;3.20;2.60;;;;;;;4.01;100.00;98338.73;109623;1251;71378;-70
2023/11/14 01:08:21;;;;;;;3.30;2.60;;;;;;;4.03;100.00;98330.08;109552;1251;59722;-68
2023/11/14 01:10:48;;;;;;;4.00;2.10;;;;;;;4.03;100.00;98320.04;109630;1251;59245;-68
2023/11/14 01:13:15;;;;;;;5.00;2.90;;;;;;;4.02;100.00;98313.00;109603;1251;73493;-70
2023/11/14 01:15:43;;;;;;;3.70;3.00;;;;;;;3.97;100.00;98289.85;109550;1250;67050;-68
2023/11/14 01:18:09;;;;;;;4.10;2.80;;;;;;;3.92;100.00;98279.31;109657;1251;72482;-68
2023/11/14 01:20:36;;;;;;;3.60;3.10;;;;;;;3.84;100.00;98272.61;109611;1251;59395;-69
2023/11/14 01:23:03;;;;;;;3.10;2.70;;;;;;;3.77;100.00;98269.28;109552;1251;61146;-70
2023/11/14 01:25:31;;;;;;;3.90;3.40;;;;;;;3.71;100.00;98270.02;109699;1250;74353;-69
2023/11/14 01:27:58;;;;;;;3.30;3.00;;;;;;;3.70;100.00;98251.99;109634;1250;66770;-70
2023/11/14 01:30:24;;;;;;;2.50;2.30;;;;;;;3.68;100.00;98235.80;109642;1250;59038;-68
2023/11/14 01:32:51;;;;;;;2.90;2.50;;;;;;;3.68;100.00;98240.57;109666;1250;58979;-68
2023/11/14 01:35:17;;;;;;;3.50;3.10;;;;;;;3.67;100.00;98243.66;109655;1250;60052;-69
2023/11/14 01:37:44;;;;;;;3.20;2.60;;;;;;;3.68;100.00;98242.71;109642;1251;59626;-69
2023/11/14 01:40:11;;;;;;;4.70;2.60;;;;;;;3.67;100.00;98237.84;109629;1250;67603;-71
2023/11/14 01:42:37;;;;;;;3.70;3.40;;;;;;;3.68;100.00;98239.88;109545;1251;72820;-70
2023/11/14 01:45:06;;;;;;;4.30;3.60;;;;;;;3.70;100.00;98233.88;109654;1251;61145;-69
2023/11/14 01:47:33;;;;;;;4.00;3.30;;;;;;;3.71;100.00;98236.19;109655;1251;60509;-68
2023/11/14 01:50:01;;;;;;;5.50;3.70;;;;;;;3.72;100.00;98241.05;109380;1251;73210;-70
2023/11/14 01:52:28;;;;;;;3.70;3.00;;;;;;;3.73;100.00;98232.46;109712;1250;65557;-70
2023/11/14 01:54:54;;;;;;;3.20;3.00;;;;;;;3.74;100.00;98225.15;109682;1250;72763;-70
2023/11/14 01:57:21;;;;;;;5.50;4.00;;;;;;;3.77;100.00;98221.11;109691;1251;59507;-68
2023/11/14 01:59:47;;;;;;;3.80;3.50;;;;;;;3.79;100.00;98219.60;109524;1251;58820;-70
2023/11/14 02:02:14;;;;;;;4.70;4.10;;;;;;;3.82;100.00;98217.63;109470;1250;59168;-69
2023/11/14 02:04:41;;;;;;;4.70;3.90;;;;;;;3.83;100.00;98212.37;109649;1250;67660;-70
2023/11/14 02:07:07;;;;;;;4.70;4.20;;;;;;;3.82;100.00;98201.77;109620;1250;72501;-71
2023/11/14 02:09:34;;;;;;;4.70;4.20;;;;;;;3.81;100.00;98188.02;109652;1250;59597;-69
2023/11/14 02:12:01;;;;;;;7.00;4.70;;;;;;;3.80;100.00;98182.52;109580;1251;58900;-69
2023/11/14 02:14:28;;;;;;;4.20;3.80;;;;;;;3.80;100.00;98180.98;109630;1251;74908;-69
2023/11/14 02:16:55;;;;;;;4.60;4.10;;;;;;;3.79;100.00;98164.01;109668;1250;67898;-70
2023/11/14 02:19:22;;;;;;;7.20;4.90;;;;;;;3.80;100.00;98160.95;109544;1253;71552;-71
2023/11/14 02:21:49;;;;;;;6.00;4.20;;;;;;;3.81;100.00;98162.84;109509;1251;59590;-69
2023/11/14 02:24:17;;;;;;;4.90;4.30;;;;;;;3.80;100.00;98159.39;109667;1250;58893;-71
2023/11/14 02:26:47;;;;;;;6.00;4.80;;;;;;;3.80;100.00;98152.77;109613;1251;74544;-69
2023/11/14 02:29:19;;;;;;;4.80;4.20;;;;;;;3.80;100.00;98154.31;109607;1251;66506;-69
2023/11/14 02:31:49;;;;;;;5.00;4.50;;;;;;;3.80;100.00;98152.88;109507;1251;71182;-68
2023/11/14 02:34:16;;;;;;;5.50;4.90;;;;;;;3.83;100.00;98151.00;109629;1250;59697;-71
2023/11/14 02:36:43;;;;;;;8.80;5.30;;;;;;;3.86;100.00;98148.02;109652;1250;60867;-69
2023/11/14 02:39:10;;;;;;;5.00;4.50;;;;;;;3.87;100.00;98150.20;109546;1251;74678;-69
2023/11/14 02:41:37;;;;;;;5.50;4.60;;;;;;;3.87;100.00;98152.85;109618;1250;67053;-70
2023/11/14 02:44:04;;;;;;;7.60;5.90;;;;;;;3.89;100.00;98162.95;109658;1251;72726;-69
2023/11/14 02:46:31;;;;;;;8.30;5.80;;;;;;;3.92;100.00;98170.58;109579;1251;60921;-71
2023/11/14 02:49:17;;;;;;;5.60;5.00;;;;;;;3.95;100.00;98171.69;109648;1250;59159;-71
2023/11/14 02:51:43;;;;;;;6.20;5.60;;;;;;;3.96;100.00;98170.44;109503;1251;74686;-69
2023/11/14 02:54:11;;;;;;;7.50;5.60;;;;;;;3.99;100.00;98158.30;109751;1251;58936;-68
2023/11/14 02:56:38;;;;;;;6.10;5.50;;;;;;;3.99;100.00;98150.02;109609;1250;71264;-68
2023/11/14 02:59:04;;;;;;;6.30;5.70;;;;;;;3.96;100.00;98149.42;109600;1250;59786;-72
2023/11/14 03:01:31;;;;;;;7.40;6.20;;;;;;;3.93;100.00;98139.90;109644;1250;60052;-68
2023/11/14 03:03:58;;;;;;;7.70;5.30;;;;;;;3.92;100.00;98136.52;109654;1250;73225;-70
2023/11/14 03:06:24;;;;;;;7.00;6.10;;;;;;;3.93;100.00;98134.14;109688;1250;67726;-69
2023/11/14 03:08:51;;;;;;;6.90;5.50;;;;;;;3.94;100.00;98127.84;109662;1250;59152;-71
2023/11/14 03:11:18;;;;;;;6.00;5.40;;;;;;;3.97;100.00;98116.40;109654;1251;59581;-70
2023/11/14 03:13:44;;;;;;;9.80;6.60;;;;;;;3.97;100.00;98107.71;109667;1250;59460;-69
2023/11/14 03:16:14;;;;;;;8.90;6.10;;;;;;;3.99;100.00;98103.34;109611;1251;74400;-69
2023/11/14 03:18:40;;;;;;;7.60;6.00;;;;;;;4.01;100.00;98100.98;109709;1250;66349;-71
2023/11/14 03:21:08;;;;;;;8.20;5.60;;;;;;;4.02;100.00;98091.77;109638;1250;71392;-71
2023/11/14 03:23:34;;;;;;;6.90;6.00;;;;;;;4.01;100.00;98087.62;109642;1250;59681;-71
2023/11/14 03:26:02;;;;;;;8.50;5.80;;;;;;;4.02;100.00;98076.54;109668;1251;58990;-69
2023/11/14 03:28:28;;;;;;;6.10;5.50;;;;;;;4.03;100.00;98071.15;109587;1250;74625;-69
2023/11/14 03:30:58;;;;;;;8.40;5.80;;;;;;;4.03;100.00;98074.34;109562;1251;67250;-70
2023/11/14 03:33:25;;;;;;;6.90;6.00;;;;;;;4.01;100.00;98070.14;109625;1251;72775;-69
2023/11/14 03:35:51;;;;;;;7.70;5.90;;;;;;;3.99;100.00;98060.49;109650;1250;59617;-69
2023/11/14 03:38:18;;;;;;;8.20;6.70;;;;;;;3.97;100.00;98062.45;109676;1250;60314;-68
2023/11/14 03:40:44;;;;;;;7.40;6.50;;;;;;;3.95;100.00;98048.87;109581;1250;73118;-68
2023/11/14 03:43:11;;;;;;;7.70;6.40;;;;;;;3.94;100.00;98046.13;109623;1250;59006;-70
2023/11/14 03:45:38;;;;;;;6.90;6.20;;;;;;;3.93;100.00;98046.76;109527;1251;71245;-68
2023/11/14 03:48:04;;;;;;;7.50;6.70;;;;;;;3.94;100.00;98038.96;109564;1250;59499;-67
2023/11/14 03:50:31;;;;;;;8.70;6.70;;;;;;;3.97;100.00;98029.37;109657;1250;60271;-68
2023/11/14 03:52:58;;;;;;;11.90;7.20;;;;;;;3.99;100.00;98025.91;109616;1251;74601;-69
2023/11/14 03:55:24;;;;;;;11.70;6.90;;;;;;;3.99;100.00;98026.97;109649;1251;67718;-71
2023/11/14 03:57:54;;;;;;;9.10;7.00;;;;;;;3.99;100.00;98023.92;109606;1250;71437;-71
2023/11/14 04:00:21;;;;;;;8.90;6.50;;;;;;;4.00;100.00;98024.30;109616;1250;59642;-69
2023/11/14 04:02:48;;;;;;;7.20;6.50;;;;;;;4.01;100.00;98026.77;109622;1250;59023;-70
2023/11/14 04:05:14;;;;;;;7.70;6.20;;;;;;;4.02;100.00;98023.19;109604;1251;73216;-71
2023/11/14 04:07:42;;;;;;;12.70;6.70;;;;;;;4.05;100.00;98017.98;109590;1251;66397;-70
2023/11/14 04:10:08;;;;;;;7.50;6.80;;;;;;;4.08;100.00;98014.67;109628;1250;71367;-70
2023/11/14 04:12:35;;;;;;;7.50;6.50;;;;;;;4.08;100.00;98000.73;109575;1250;58872;-70
2023/11/14 04:15:02;;;;;;;9.70;7.00;;;;;;;4.07;100.00;97990.71;109577;1250;58973;-71
2023/11/14 04:17:28;;;;;;;9.70;6.70;;;;;;;4.03;100.00;97985.80;109621;1250;74692;-71
2023/11/14 04:19:55;;;;;;;7.60;6.30;;;;;;;4.00;100.00;97987.59;109598;1250;66497;-69
2023/11/14 04:22:22;;;;;;;8.80;6.50;;;;;;;4.00;100.00;97988.98;109590;1250;58967;-71
2023/11/14 04:24:48;;;;;;;9.00;6.40;;;;;;;4.04;100.00;97987.71;109631;1250;58945;-70
2023/11/14 04:27:16;;;;;;;8.20;6.30;;;;;;;4.07;100.00;97996.70;109661;1251;60124;-69
2023/11/14 04:29:43;;;;;;;7.30;6.40;;;;;;;4.08;100.00;98000.04;109653;1250;74479;-70
2023/11/14 04:32:09;;;;;;;10.90;6.80;;;;;;;4.12;100.00;97997.89;109691;1251;66386;-70
2023/11/14 04:34:36;;;;;;;7.30;6.40;;;;;;;4.15;100.00;97991.64;109657;1250;72715;-71
2023/11/14 04:37:03;;;;;;;10.10;7.60;;;;;;;4.19;100.00;97996.57;109613;1251;59761;-71
2023/11/14 04:39:29;;;;;;;8.90;7.70;;;;;;;4.24;100.00;98001.47;109574;1250;59102;-71
2023/11/14 04:41:56;;;;;;;9.90;8.20;;;;;;;4.28;100.00;97984.13;109687;1250;74742;-70
2023/11/14 04:44:22;;;;;;;9.50;8.50;;;;;;;4.32;100.00;97979.02;109659;1250;66811;-70
2023/11/14 04:46:50;;;;;;;10.20;8.90;;;;;;;4.34;100.00;97974.04;109614;1250;70807;-69
2023/11/14 04:49:17;;;;;;;12.70;7.90;;;;;;;4.34;100.00;97975.88;109534;1251;59935;-67
2023/11/14 04:51:43;;;;;;;8.40;7.30;;;;;;;4.35;100.00;97980.59;109453;1251;59014;-67
2023/11/14 04:54:10;;;;;;;8.90;7.10;;;;;;;4.35;100.00;97978.80;109623;1251;59038;-67
2023/11/14 04:56:37;;;;;;;8.00;7.20;;;;;;;4.36;100.00;97982.27;109569;1250;67834;-67
2023/11/14 04:59:03;;;;;;;10.10;7.00;;;;;;;4.36;100.00;97980.98;109619;1250;72577;-66
2023/11/14 05:01:30;;;;;;;8.60;7.40;;;;;;;4.34;100.00;97973.84;109595;1251;58913;-66
2023/11/14 05:03:57;;;;;;;7.70;6.30;;;;;;;4.31;100.00;97974.52;109600;1250;58999;-66
2023/11/14 05:06:23;;;;;;;8.10;7.00;;;;;;;4.29;100.00;97991.60;109667;1250;73361;-66
2023/11/14 05:08:50;;;;;;;11.00;6.70;;;;;;;4.29;100.00;97990.38;109671;1250;66435;-68
2023/11/14 05:11:17;;;;;;;8.50;7.00;;;;;;;4.30;100.00;97975.14;109556;1253;71537;-66
2023/11/14 05:13:44;;;;;;;8.80;6.50;;;;;;;4.32;100.00;97966.67;109609;1250;60086;-66
2023/11/14 05:16:10;;;;;;;6.80;5.90;;;;;;;4.35;100.00;97964.57;109599;1251;58877;-64
2023/11/14 05:18:49;;;;;;;8.30;6.60;;;;;;;4.41;100.00;97948.39;109596;1251;74467;-66
2023/11/14 05:21:16;;;;;;;6.20;5.60;;;;;;;4.45;100.00;97941.95;109607;1250;59158;-67
2023/11/14 05:23:42;;;;;;;6.40;5.40;;;;;;;4.48;100.00;97935.64;109560;1250;59043;-68
2023/11/14 05:26:09;;;;;;;5.80;5.20;;;;;;;4.50;100.00;97916.77;109644;1250;58972;-65
2023/11/14 05:28:38;;;;;;;6.30;5.50;;;;;;;4.53;100.00;97881.66;109600;1250;59107;-71
2023/11/14 05:31:05;;;;;;;10.00;5.70;;;;;;;4.55;100.00;97852.16;109646;1251;73420;-68
2023/11/14 05:33:31;;;;;;;11.90;8.60;;;;;;;4.56;100.00;97785.34;109669;1250;66369;-70
2023/11/14 05:35:58;;;;;;;8.40;7.10;;;;;;;4.56;100.00;97735.63;109614;1251;72589;-70
2023/11/14 05:38:24;;;;;;;5.70;4.60;;;;;;;4.54;100.00;97746.79;109622;1251;59012;-72
2023/11/14 05:40:51;;;;;;;5.80;5.20;;;;;;;4.46;100.00;97752.40;109693;1250;60075;-70
2023/11/14 05:43:18;;;;;;;5.60;4.90;;;;;;;4.39;100.00;97753.36;109568;1251;74744;-71
2023/11/14 05:45:45;;;;;;;6.80;4.60;;;;;;;4.35;100.00;97766.84;109666;1250;67725;-68
2023/11/14 05:48:12;;;;;;;5.30;4.80;;;;;;;4.34;100.00;97809.79;109639;1251;70386;-71
2023/11/14 05:50:39;;;;;;;5.00;4.30;;;;;;;4.32;100.00;97847.64;109609;1250;61052;-69
2023/11/14 05:53:05;;;;;;;4.90;4.40;;;;;;;4.32;100.00;97851.89;109575;1250;58891;-70
2023/11/14 05:55:32;;;;;;;4.80;4.30;;;;;;;4.35;100.00;97857.05;109615;1250;59504;-71
2023/11/14 05:57:58;;;;;;;6.30;5.10;;;;;;;4.39;100.00;97861.38;109551;1250;58985;-69
2023/11/14 06:00:25;;;;;;;5.90;5.00;;;;;;;4.41;100.00;97857.08;109610;1250;71197;-75
2023/11/14 06:02:52;;;;;;;5.80;5.20;;;;;;;4.44;100.00;97864.13;109613;1251;59025;-71
2023/11/14 06:05:19;;;;;;;5.90;5.30;;;;;;;4.48;100.00;97859.66;109580;1250;58849;-71
2023/11/14 06:07:46;;;;;;;7.40;5.40;;;;;;;4.51;100.00;97863.00;109660;1250;74689;-67
2023/11/14 06:10:12;;;;;;;6.60;5.90;;;;;;;4.53;100.00;97867.83;109598;1250;66407;-67
2023/11/14 06:12:39;;;;;;;6.80;6.10;;;;;;;4.55;100.00;97868.42;109526;1250;71867;-68
2023/11/14 06:15:07;;;;;;;8.90;6.70;;;;;;;4.58;100.00;97867.41;109634;1250;58916;-69
2023/11/14 06:17:34;;;;;;;11.80;6.90;;;;;;;4.61;100.00;97868.87;109534;1251;60329;-66
2023/11/14 06:20:01;;;;;;;8.10;6.60;;;;;;;4.61;100.00;97862.01;109640;1251;74879;-71
2023/11/14 06:22:28;;;;;;;6.20;5.50;;;;;;;4.63;100.00;97866.35;109641;1250;66922;-69
2023/11/14 06:24:54;;;;;;;7.40;6.50;;;;;;;4.65;100.00;97867.81;109611;1250;72449;-72
2023/11/14 06:27:21;;;;;;;6.30;5.50;;;;;;;4.68;100.00;97858.90;109542;1250;61655;-78
2023/11/14 06:29:48;;;;;;;10.10;7.00;;;;;;;4.72;100.00;97857.55;109577;1250;59143;-71
2023/11/14 06:32:14;;;;;;;8.60;6.10;;;;;;;4.75;100.00;97861.04;109452;1251;73426;-71
2023/11/14 06:34:41;;;;;;;8.10;5.90;;;;;;;4.77;100.00;97848.52;109564;1251;59016;-71
2023/11/14 06:37:08;;;;;;;6.40;5.80;;;;;;;4.79;100.00;97836.71;109454;1251;72474;-71
2023/11/14 06:39:34;;;;;;;6.20;5.50;;;;;;;4.80;100.00;97831.67;109490;1251;61001;-72
2023/11/14 06:42:01;;;;;;;6.20;4.70;;;;;;;4.79;100.00;97844.50;109529;1251;58969;-70
2023/11/14 06:44:28;;;;;;;5.10;4.40;;;;;;;4.76;100.00;97823.92;109490;1250;73325;-70
2023/11/14 06:46:54;;;;;;;7.30;5.00;;;;;;;4.73;100.00;97818.95;109512;1251;59031;-71
2023/11/14 06:49:21;;;;;;;5.10;4.50;;;;;;;4.73;100.00;97818.67;109531;1250;59070;-71
2023/11/14 06:51:47;;;;;;;7.60;5.40;;;;;;;4.72;100.00;97811.86;109635;1251;58910;-70
2023/11/14 06:54:14;;;;;;;8.10;6.70;;;;;;;4.70;100.00;97814.42;109645;1251;59430;-70
2023/11/14 06:56:40;;;;;;;9.30;7.20;;;;;;;4.67;100.00;97809.13;109667;1251;58982;-69
2023/11/14 06:59:07;;;;;;;8.40;6.20;;;;;;;4.64;100.00;97800.41;109656;1251;59061;-68
2023/11/14 07:01:34;;;;;;;6.10;5.40;;;;;;;4.61;100.00;97798.77;109536;1251;71268;-68
2023/11/14 07:04:00;;;;;;;9.20;7.00;;;;;;;4.60;100.00;97791.48;109617;1250;60899;-71
2023/11/14 07:06:28;;;;;;;8.60;6.50;;;;;;;4.60;100.00;97783.33;109629;1250;58992;-71
2023/11/14 07:08:56;;;;;;;8.70;6.30;;;;;;;4.58;100.00;97775.23;109617;1251;74703;-71
2023/11/14 07:11:22;;;;;;;7.00;5.90;;;;;;;4.57;100.00;97780.12;109574;1250;66094;-69
2023/11/14 07:13:49;;;;;;;9.80;6.70;;;;;;;4.59;100.00;97772.87;109599;1250;71767;-70
2023/11/14 07:16:15;;;;;;;10.70;7.40;;;;;;;4.61;100.00;97778.45;109598;1251;60415;-70
2023/11/14 07:18:42;;;;;;;9.60;6.60;;;;;;;4.60;100.00;97771.34;109626;1251;58877;-70
2023/11/14 07:21:09;;;;;;;9.30;5.80;;;;;;;4.57;100.00;97774.42;109601;1251;74478;-70
2023/11/14 07:23:35;;;;;;;6.20;5.20;;;;;;;4.57;100.00;97768.30;109654;1250;67874;-69
2023/11/14 07:26:04;;;;;;;6.60;5.20;;;;;;;4.57;100.00;97764.99;109641;1250;72706;-69
2023/11/14 07:28:33;;;;;;;6.50;5.30;;;;;;;4.57;100.00;97775.15;109572;1250;61935;-70
2023/11/14 07:30:59;;;;;;;7.60;5.30;;;;;;;4.58;100.00;97771.59;109616;1251;58891;-70
2023/11/14 07:33:26;;;;;;;6.10;5.20;;;;;;;4.58;100.00;97763.81;109636;1250;73264;-69
2023/11/14 07:35:53;;;;;;;6.20;4.70;;;;;;;4.60;100.00;97767.16;109647;1251;58863;-71
2023/11/14 07:38:19;;;;;;;5.90;5.30;;;;;;;4.61;100.00;97774.05;109598;1251;72616;-70
2023/11/14 07:40:46;;;;;;;5.60;5.00;;;;;;;4.62;100.00;97779.55;109652;1251;58917;-71
2023/11/14 07:43:12;;;;;;;5.80;5.10;;;;;;;4.63;100.00;97771.75;109597;1253;60002;-70
2023/11/14 07:45:40;;;;;;;5.90;4.90;;;;;;;4.64;100.00;97767.70;109603;1251;74430;-72
2023/11/14 07:48:07;;;;;;;6.10;5.50;;;;;;;4.65;100.00;97772.48;109648;1250;67705;-70
2023/11/14 07:50:34;;;;;;;7.80;6.70;;;;;;;4.67;100.00;97770.34;109636;1251;72695;-69
2023/11/14 07:53:00;;;;;;;12.00;6.60;;;;;;;4.68;100.00;97776.23;109543;1251;58872;-68
2023/11/14 07:55:27;;;;;;;6.60;5.60;;;;;;;4.68;100.00;97767.30;109591;1251;58977;-71
2023/11/14 07:57:54;;;;;;;10.00;6.40;;;;;;;4.69;100.00;97761.46;109591;1250;60682;-69
2023/11/14 08:00:21;;;;;;;7.10;6.40;;;;;;;4.70;100.00;97761.80;109677;1251;67987;-71
2023/11/14 08:02:47;;;;;;;10.60;7.30;;;;;;;4.70;100.00;97761.73;109600;1251;72420;-72
2023/11/14 08:05:14;;;;;;;7.60;6.70;;;;;;;4.75;100.00;97759.39;109626;1251;61978;-69
2023/11/14 08:07:41;;;;;;;9.60;5.60;;;;;;;4.81;100.00;97757.10;109607;1251;59230;-71
2023/11/14 08:10:08;;;;;;;22.80;8.80;;;;;;;4.87;100.00;97760.09;109657;1250;74487;-69
2023/11/14 08:12:36;;;;;;;9.00;6.20;;;;;;;4.94;100.00;97759.36;109650;1251;67148;-69
2023/11/14 08:15:03;;;;;;;8.90;5.40;;;;;;;5.01;100.00;97758.15;109600;1253;72907;-70
2023/11/14 08:17:30;;;;;;;9.30;4.80;;;;;;;5.08;100.00;97758.98;109639;1250;60971;-69
2023/11/14 08:19:57;;;;;;;4.90;4.30;;;;;;;5.12;100.00;97750.05;109617;1250;60026;-71
2023/11/14 08:22:24;;;;;;;7.60;5.60;;;;;;;5.16;100.00;97751.80;109672;1250;75533;-69
2023/11/14 08:24:51;;;;;;;7.70;6.40;;;;;;;5.21;100.00;97745.92;109694;1251;66465;-71
2023/11/14 08:27:17;;;;;;;6.70;6.00;;;;;;;5.26;100.00;97738.83;109559;1251;58871;-70
2023/11/14 08:29:47;;;;;;;7.60;6.30;;;;;;;5.31;100.00;97737.20;109559;1251;60562;-70
2023/11/14 08:32:17;;;;;;;5.10;4.70;;;;;;;5.37;100.00;97732.36;109645;1250;60228;-69
2023/11/14 08:34:44;;;;;;;4.10;3.60;;;;;;;5.42;100.00;97731.29;109662;1250;74427;-69
2023/11/14 08:37:10;;;;;;;3.70;3.40;;;;;;;5.46;100.00;97739.58;109624;1251;68079;-70
2023/11/14 08:39:37;;;;;;;3.80;3.40;;;;;;;5.51;100.00;97741.52;109658;1251;71578;-70
2023/11/14 08:42:05;;;;;;;4.00;3.30;;;;;;;5.56;100.00;97731.41;109685;1251;60528;-69
2023/11/14 08:44:32;;;;;;;3.70;3.40;;;;;;;5.62;100.00;97731.20;109599;1251;59173;-70
2023/11/14 08:46:58;;;;;;;4.20;3.40;;;;;;;5.70;100.00;97724.17;109675;1251;74414;-69
2023/11/14 08:49:25;;;;;;;3.40;3.00;;;;;;;5.76;100.00;97721.79;109666;1250;59008;-71
2023/11/14 08:51:52;;;;;;;3.90;3.50;;;;;;;5.84;100.00;97715.63;109594;1251;71677;-68
2023/11/14 08:54:19;;;;;;;4.00;3.60;;;;;;;5.92;100.00;97716.42;109648;1251;62089;-71
2023/11/14 08:56:45;;;;;;;5.10;3.60;;;;;;;6.01;100.00;97712.00;109609;1251;58905;-70
2023/11/14 08:59:13;;;;;;;3.20;2.70;;;;;;;6.10;100.00;97713.66;109643;1251;59448;-69
2023/11/14 09:01:40;;;;;;;20.20;4.80;;;;;;;6.19;100.00;97704.88;109691;1251;67904;-71
2023/11/14 09:04:10;;;;;;;9.60;4.10;;;;;;;6.28;100.00;97712.94;109608;1251;72446;-71
2023/11/14 09:06:37;;;;;;;4.70;3.80;;;;;;;6.37;100.00;97706.30;109627;1250;62287;-68
2023/11/14 09:09:04;;;;;;;12.60;6.60;;;;;;;6.47;100.00;97707.61;109676;1250;60204;-71
2023/11/14 09:11:31;;;;;;;16.90;7.90;;;;;;;6.54;100.00;97708.92;109622;1251;73450;-71
2023/11/14 09:14:01;;;;;;;4.20;3.60;;;;;;;6.62;100.00;97703.77;109634;1251;68327;-70
2023/11/14 09:16:27;;;;;;;6.70;5.70;;;;;;;6.69;100.00;97701.64;109620;1255;72182;-71
2023/11/14 09:18:54;;;;;;;4.90;3.70;;;;;;;6.76;100.00;97698.81;109586;1251;60371;-71
2023/11/14 09:21:21;;;;;;;4.00;3.60;;;;;;;6.82;100.00;97704.56;109697;1250;60043;-71
2023/11/14 09:23:47;;;;;;;6.50;4.90;;;;;;;6.88;100.00;97707.46;109637;1251;74441;-71
2023/11/14 09:26:14;;;;;;;4.80;4.40;;;;;;;6.91;100.00;97704.93;109636;1251;66546;-72
2023/11/14 09:28:41;;;;;;;4.70;4.20;;;;;;;6.94;100.00;97703.77;109615;1251;71884;-71
2023/11/14 09:31:08;;;;;;;5.50;3.70;;;;;;;6.99;100.00;97699.55;109530;1251;62985;-71
2023/11/14 09:33:37;;;;;;;5.10;4.20;;;;;;;7.02;100.00;97699.86;109652;1250;58996;-70
2023/11/14 09:36:06;;;;;;;5.20;4.50;;;;;;;7.06;100.00;97699.13;109672;1251;74597;-69
2023/11/14 09:38:32;;;;;;;5.90;4.00;;;;;;;7.11;100.00;97698.88;109600;1251;68041;-70
2023/11/14 09:41:00;;;;;;;4.60;4.10;;;;;;;7.16;100.00;97690.38;109562;1250;71103;-70
2023/11/14 09:43:26;;;;;;;9.90;4.40;;;;;;;7.20;100.00;97691.51;109505;1253;61956;-71
2023/11/14 09:45:54;;;;;;;6.00;4.80;;;;;;;7.26;100.00;97696.20;109477;1251;60176;-71
2023/11/14 09:48:21;;;;;;;6.60;4.40;;;;;;;7.33;100.00;97691.81;109567;1250;73507;-71
2023/11/14 09:50:48;;;;;;;3.70;3.40;;;;;;;7.40;100.00;97692.02;109632;1251;65647;-69
2023/11/14 09:53:14;;;;;;;4.50;3.60;;;;;;;7.47;100.00;97686.33;109456;1251;198678;-68
2023/11/14 09:55:41;;;;;;;5.40;4.30;;;;;;;7.54;100.00;97688.36;109545;1251;59573;-71
2023/11/14 09:58:08;;;;;;;5.50;4.70;;;;;;;7.60;100.00;97689.13;109477;1251;59046;-69
2023/11/14 10:00:35;;;;;;;5.70;4.00;;;;;;;7.68;100.00;97684.95;109613;1250;72885;-71
2023/11/14 10:03:03;;;;;;;5.50;3.60;;;;;;;7.75;100.00;97683.48;109591;1251;68260;-71
2023/11/14 10:05:30;;;;;;;4.20;3.70;;;;;;;7.82;100.00;97685.27;109623;1251;74008;-70
2023/11/14 10:07:58;;;;;;;4.10;3.40;;;;;;;7.87;100.00;97686.80;109521;1250;62039;-68
2023/11/14 10:10:24;;;;;;;5.60;4.10;;;;;;;7.93;100.00;97682.67;109404;1251;60189;-70
2023/11/14 10:12:51;;;;;;;5.20;4.30;;;;;;;7.98;100.00;97683.48;109623;1251;76208;-69
2023/11/14 10:15:28;;;;;;;5.10;4.10;;;;;;;8.02;100.00;97685.36;109620;1251;67706;-70
2023/11/14 10:17:55;;;;;;;5.60;4.30;;;;;;;8.08;100.00;97687.31;109602;1251;73922;-69
2023/11/14 10:20:21;;;;;;;5.60;4.50;;;;;;;8.12;100.00;97683.33;109568;1251;60395;-68
2023/11/14 10:23:03;;;;;;;3.80;3.40;;;;;;;8.16;100.00;97685.25;109652;1251;60376;-68
2023/11/14 10:25:37;;;;;;;4.80;3.80;;;;;;;8.20;100.00;97687.73;109582;1250;73650;-71
2023/11/14 10:28:04;;;;;;;5.90;3.50;;;;;;;8.23;100.00;97689.96;109686;1251;67897;-71
2023/11/14 10:30:55;;;;;;;8.70;4.90;;;;;;;8.26;100.00;97691.80;109609;1251;72714;-71
2023/11/14 10:33:42;;;;;;;8.00;3.80;;;;;;;8.30;100.00;97689.61;109630;1250;61788;-70
2023/11/14 10:36:09;;;;;;;4.30;3.90;;;;;;;8.33;100.00;97693.46;109662;1250;59462;-71
2023/11/14 10:38:39;;;;;;;5.10;3.70;;;;;;;8.37;100.00;97689.48;109613;1254;73430;-69
2023/11/14 10:41:06;;;;;;;4.10;3.40;;;;;;;8.42;100.00;97694.64;109574;1253;67733;-71
2023/11/14 10:43:35;;;;;;;4.90;3.70;;;;;;;8.47;100.00;97693.79;109629;1251;72374;-72
2023/11/14 10:46:09;;;;;;;4.80;3.30;;;;;;;8.51;100.00;97695.77;109596;1251;63315;-69
2023/11/14 10:48:36;;;;;;;6.00;3.70;;;;;;;8.55;100.00;97692.46;109682;1251;60355;-71
2023/11/14 10:51:03;;;;;;;5.60;4.10;;;;;;;8.60;100.00;97690.63;109668;1251;74867;-70
2023/11/14 10:53:30;;;;;;;5.20;3.70;;;;;;;8.69;100.00;97688.02;109643;1251;66816;-69
2023/11/14 10:55:57;;;;;;;4.10;3.50;;;;;;;8.78;100.00;97689.98;109644;1250;73506;-70
2023/11/14 10:58:24;;;;;;;8.10;3.60;;;;;;;8.88;100.00;97690.41;109353;1252;61985;-69
2023/11/14 11:00:53;;;;;;;3.20;2.90;;;;;;;8.97;100.00;97687.77;109640;1251;60393;-72
2023/11/14 11:03:20;;;;;;;6.10;3.70;;;;;;;9.03;100.00;97685.35;109543;1251;75587;-71
2023/11/14 11:05:47;;;;;;;4.50;4.10;;;;;;;9.08;100.00;97690.74;109611;1250;69328;-70
2023/11/14 11:08:14;;;;;;;5.10;3.50;;;;;;;9.11;100.00;97691.36;109600;1251;71464;-72
2023/11/14 11:10:42;;;;;;;5.30;4.30;;;;;;;9.13;100.00;97699.73;109518;1251;61194;-70
2023/11/14 11:13:12;;;;;;;5.00;3.90;;;;;;;9.14;100.00;97699.52;109650;1251;60383;-71
2023/11/14 11:15:46;;;;;;;6.60;3.90;;;;;;;9.15;100.00;97692.17;109648;1251;73838;-70
2023/11/14 11:18:13;;;;;;;6.00;3.70;;;;;;;9.15;100.00;97699.27;109608;1255;68260;-69
2023/11/14 11:20:40;;;;;;;4.10;3.00;;;;;;;9.16;100.00;97699.72;109537;1251;72692;-69
2023/11/14 11:23:12;;;;;;;3.50;2.90;;;;;;;9.19;100.00;97697.73;109626;1251;60877;-69
2023/11/14 11:25:46;;;;;;;4.60;3.70;;;;;;;9.24;100.00;97702.99;109562;1251;60231;-70